createdAt,value
2018-04-08T00:00:40.764Z,19.40
2018-04-08T00:03:09.077Z,18.80
2018-04-08T00:05:37.346Z,18.60
2018-04-08T00:08:05.885Z,19.13
2018-04-08T00:10:34.921Z,19.50
2018-04-08T00:13:03.225Z,19.40
2018-04-08T00:15:31.504Z,18.70
2018-04-08T00:17:59.769Z,18.70
2018-04-08T00:20:28.072Z,16.97
2018-04-08T00:22:56.451Z,17.53
2018-04-08T00:25:24.745Z,20.73
2018-04-08T00:27:53.032Z,19.43
2018-04-08T00:30:21.335Z,20.43
2018-04-08T00:32:49.596Z,20.13
2018-04-08T00:35:17.896Z,21.40
2018-04-08T00:37:46.173Z,19.97
2018-04-08T00:40:14.481Z,18.50
2018-04-08T00:42:42.737Z,19.87
2018-04-08T00:45:11.041Z,20.43
2018-04-08T00:47:40.080Z,18.60
2018-04-08T00:50:08.378Z,25.40
2018-04-08T00:52:36.656Z,20.30
2018-04-08T00:55:04.984Z,19.23
2018-04-08T00:57:33.244Z,18.53
2018-04-08T01:00:02.311Z,19.73
2018-04-08T01:02:30.581Z,18.73
2018-04-08T01:04:59.192Z,20.17
2018-04-08T01:07:28.244Z,19.37
2018-04-08T01:09:56.572Z,19.30
2018-04-08T01:12:24.858Z,19.30
2018-04-08T01:14:53.888Z,18.50
2018-04-08T01:17:22.188Z,18.90
2018-04-08T01:19:50.478Z,19.17
2018-04-08T01:22:19.548Z,19.07
2018-04-08T01:24:48.204Z,19.20
2018-04-08T01:27:16.490Z,19.23
2018-04-08T01:29:44.769Z,19.87
2018-04-08T01:32:13.076Z,19.30
2018-04-08T01:34:41.360Z,18.07
2018-04-08T01:37:09.696Z,19.27
2018-04-08T01:39:38.009Z,17.70
2018-04-08T01:42:06.293Z,17.97
2018-04-08T01:44:34.560Z,17.73
2018-04-08T01:47:03.637Z,19.07
2018-04-08T01:49:31.916Z,18.37
2018-04-08T01:52:00.272Z,18.50
2018-04-08T01:54:29.253Z,19.00
2018-04-08T01:56:57.568Z,19.83
2018-04-08T01:59:25.864Z,20.47
2018-04-08T02:01:54.915Z,20.53
2018-04-08T02:04:23.212Z,20.63
2018-04-08T02:06:51.496Z,20.77
2018-04-08T02:09:19.868Z,18.73
2018-04-08T02:11:48.144Z,17.63
2018-04-08T02:14:16.436Z,19.50
2018-04-08T02:16:45.481Z,21.03
2018-04-08T02:19:13.782Z,20.23
2018-04-08T02:21:42.057Z,22.13
2018-04-08T02:24:10.357Z,21.17
2018-04-08T02:26:39.415Z,18.90
2018-04-08T02:29:07.713Z,21.57
2018-04-08T02:31:35.986Z,19.43
2018-04-08T02:34:04.299Z,19.67
2018-04-08T02:36:32.589Z,18.37
2018-04-08T02:39:00.888Z,19.90
2018-04-08T02:41:29.175Z,18.00
2018-04-08T02:43:57.478Z,18.43
2018-04-08T02:46:31.737Z,19.90
2018-04-08T02:49:00.036Z,17.30
2018-04-08T02:51:28.321Z,17.93
2018-04-08T02:53:56.613Z,18.23
2018-04-08T02:56:24.884Z,18.47
2018-04-08T02:58:53.188Z,19.37
2018-04-08T03:01:22.238Z,17.93
2018-04-08T03:03:50.532Z,17.50
2018-04-08T03:06:18.797Z,17.97
2018-04-08T03:08:47.865Z,17.80
2018-04-08T03:11:16.405Z,18.67
2018-04-08T03:13:45.460Z,16.97
2018-04-08T03:16:13.725Z,17.60
2018-04-08T03:18:42.009Z,16.33
2018-04-08T03:21:10.350Z,16.10
2018-04-08T03:23:38.624Z,16.67
2018-04-08T03:26:06.933Z,19.00
2018-04-08T03:28:35.208Z,16.70
2018-04-08T03:31:03.502Z,17.73
2018-04-08T03:33:31.782Z,15.03
2018-04-08T03:36:00.175Z,16.70
2018-04-08T03:38:28.445Z,17.10
2018-04-08T03:40:57.756Z,18.20
2018-04-08T03:43:26.816Z,16.97
2018-04-08T03:45:55.112Z,17.23
2018-04-08T03:48:23.364Z,15.60
2018-04-08T03:50:52.427Z,15.90
2018-04-08T03:53:20.712Z,15.10
2018-04-08T03:55:48.997Z,15.63
2018-04-08T03:58:17.277Z,16.77
2018-04-08T04:00:45.581Z,16.90
2018-04-08T04:03:13.845Z,16.73
2018-04-08T04:05:42.152Z,17.10
2018-04-08T04:08:11.188Z,17.80
2018-04-08T04:10:39.465Z,16.23
2018-04-08T04:13:07.766Z,14.20
2018-04-08T04:15:36.020Z,14.97
2018-04-08T04:18:16.244Z,14.43
2018-04-08T04:20:57.253Z,15.27
2018-04-08T04:23:37.224Z,17.47
2018-04-08T04:39:34.064Z,15.60
2018-04-08T04:42:03.135Z,16.33
2018-04-08T04:44:31.408Z,16.33
2018-04-08T04:46:59.755Z,14.63
2018-04-08T04:49:28.033Z,15.83
2018-04-08T04:51:56.333Z,14.50
2018-04-08T04:54:24.593Z,15.90
2018-04-08T04:56:52.869Z,15.17
2018-04-08T04:59:21.155Z,15.93
2018-04-08T05:01:49.438Z,15.80
2018-04-08T05:04:17.720Z,15.70
2018-04-08T05:06:46.008Z,14.40
2018-04-08T05:09:14.313Z,15.60
2018-04-08T05:11:43.346Z,14.47
2018-04-08T05:14:11.644Z,15.07
2018-04-08T05:16:39.905Z,15.83
2018-04-08T05:19:08.196Z,14.00
2018-04-08T05:21:36.473Z,15.00
2018-04-08T05:24:04.773Z,15.33
2018-04-08T05:26:33.048Z,14.37
2018-04-08T05:29:01.332Z,15.50
2018-04-08T05:31:29.604Z,14.70
2018-04-08T05:33:57.885Z,14.17
2018-04-08T05:36:26.936Z,15.13
2018-04-08T05:38:55.234Z,14.23
2018-04-08T05:41:23.509Z,16.20
2018-04-08T05:43:51.808Z,14.77
2018-04-08T05:46:20.843Z,15.20
2018-04-08T05:48:49.168Z,15.10
2018-04-08T05:51:18.218Z,15.07
2018-04-08T05:53:46.545Z,15.00
2018-04-08T05:56:14.836Z,14.77
2018-04-08T05:58:43.877Z,16.83
2018-04-08T06:01:12.181Z,14.83
2018-04-08T06:03:40.461Z,14.60
2018-04-08T06:06:08.760Z,15.93
2018-04-08T06:08:37.044Z,15.17
2018-04-08T06:11:05.333Z,17.33
2018-04-08T06:13:33.603Z,14.77
2018-04-08T06:16:01.912Z,14.57
2018-04-08T06:18:30.192Z,14.90
2018-04-08T06:20:58.500Z,15.60
2018-04-08T06:23:27.573Z,14.60
2018-04-08T06:25:56.628Z,16.73
2018-04-08T06:28:24.904Z,16.47
2018-04-08T06:30:53.201Z,14.40
2018-04-08T06:33:21.474Z,14.30
2018-04-08T06:35:49.778Z,13.50
2018-04-08T06:38:18.098Z,14.30
2018-04-08T06:40:46.400Z,13.60
2018-04-08T06:43:14.690Z,14.63
2018-04-08T06:45:42.999Z,12.77
2018-04-08T06:48:12.038Z,13.80
2018-04-08T06:50:40.373Z,15.00
2018-04-08T06:53:09.412Z,17.70
2018-04-08T06:55:37.697Z,14.30
2018-04-08T06:58:05.993Z,16.33
2018-04-08T07:00:34.273Z,13.60
2018-04-08T07:16:03.476Z,15.30
2018-04-08T07:18:31.816Z,13.63
2018-04-08T07:21:00.081Z,16.07
2018-04-08T07:23:28.391Z,13.50
2018-04-08T07:25:56.652Z,14.57
2018-04-08T07:28:24.953Z,14.00
2018-04-08T07:30:54.001Z,12.80
2018-04-08T07:33:22.296Z,12.70
2018-04-08T07:35:50.593Z,13.97
2018-04-08T07:38:18.912Z,12.97
2018-04-08T07:40:47.196Z,14.80
2018-04-08T07:43:15.503Z,14.13
2018-04-08T07:45:43.776Z,13.20
2018-04-08T07:48:12.073Z,15.37
2018-04-08T07:50:41.122Z,14.73
2018-04-08T07:53:09.418Z,12.20
2018-04-08T07:55:37.704Z,14.50
2018-04-08T07:58:07.152Z,13.43
2018-04-08T08:00:35.434Z,14.50
2018-04-08T08:03:03.737Z,14.30
2018-04-08T08:05:32.021Z,15.57
2018-04-08T08:08:00.314Z,16.33
2018-04-08T08:10:29.368Z,13.77
2018-04-08T08:12:57.689Z,12.53
2018-04-08T08:15:26.740Z,14.77
2018-04-08T08:17:55.016Z,13.93
2018-04-08T08:20:23.316Z,13.30
2018-04-08T08:22:51.587Z,13.53
2018-04-08T08:25:19.903Z,15.90
2018-04-08T08:27:48.167Z,15.40
2018-04-08T08:30:16.497Z,17.23
2018-04-08T08:32:44.782Z,15.63
2018-04-08T08:35:13.083Z,17.77
2018-04-08T08:37:41.365Z,15.93
2018-04-08T08:40:09.669Z,16.00
2018-04-08T08:42:38.748Z,16.90
2018-04-08T08:48:06.693Z,17.17
2018-04-08T08:53:32.568Z,13.53
2018-04-08T08:56:01.324Z,15.60
2018-04-08T08:58:29.600Z,15.17
2018-04-08T09:00:57.905Z,14.30
2018-04-08T09:03:26.181Z,15.70
2018-04-08T09:05:54.529Z,15.93
2018-04-08T09:08:22.810Z,14.83
2018-04-08T09:10:51.121Z,15.17
2018-04-08T09:13:20.161Z,15.33
2018-04-08T09:15:48.476Z,16.40
2018-04-08T09:18:16.759Z,15.93
2018-04-08T09:20:46.625Z,15.30
2018-04-08T09:23:14.914Z,18.20
2018-04-08T09:25:46.884Z,15.63
2018-04-08T09:28:15.201Z,24.30
2018-04-08T09:30:44.262Z,15.30
2018-04-08T09:33:12.533Z,15.03
2018-04-08T09:35:40.853Z,17.17
2018-04-08T09:38:09.135Z,20.13
2018-04-08T09:40:37.441Z,16.97
2018-04-08T09:43:05.721Z,17.70
2018-04-08T09:45:34.183Z,16.90
2018-04-08T09:48:03.196Z,17.67
2018-04-08T09:53:29.284Z,15.70
2018-04-08T09:55:58.347Z,16.13
2018-04-08T09:58:27.080Z,14.80
2018-04-08T10:14:17.765Z,14.50
2018-04-08T10:16:46.081Z,18.00
2018-04-08T10:19:14.353Z,16.37
2018-04-08T10:21:42.701Z,18.37
2018-04-08T10:24:10.997Z,16.20
2018-04-08T10:26:39.321Z,16.77
2018-04-08T10:29:08.425Z,17.50
2018-04-08T10:31:36.654Z,18.47
2018-04-08T10:34:04.954Z,17.80
2018-04-08T10:36:34.025Z,18.10
2018-04-08T10:39:02.353Z,17.20
2018-04-08T10:41:30.649Z,18.57
2018-04-08T10:43:58.956Z,16.47
2018-04-08T10:46:27.237Z,17.87
2018-04-08T10:48:55.552Z,15.83
2018-04-08T10:51:23.854Z,16.67
2018-04-08T10:53:52.151Z,17.00
2018-04-08T10:56:20.436Z,16.80
2018-04-08T10:58:48.747Z,14.70
2018-04-08T11:01:17.030Z,16.80
2018-04-08T11:03:46.130Z,15.10
2018-04-08T11:06:15.168Z,15.83
2018-04-08T11:08:43.486Z,19.30
2018-04-08T11:11:11.753Z,14.67
2018-04-08T11:13:40.058Z,15.43
2018-04-08T11:16:08.353Z,16.70
2018-04-08T11:18:36.634Z,15.87
2018-04-08T11:21:04.921Z,15.00
2018-04-08T11:23:33.242Z,14.30
2018-04-08T11:26:02.327Z,13.57
2018-04-08T11:28:30.599Z,15.60
2018-04-08T11:30:58.900Z,14.60
2018-04-08T11:33:27.201Z,16.50
2018-04-08T11:35:55.525Z,18.70
2018-04-08T11:38:23.817Z,19.93
2018-04-08T11:40:52.884Z,17.27
2018-04-08T11:43:21.173Z,16.73
2018-04-08T11:45:49.483Z,17.40
2018-04-08T11:48:17.773Z,16.17
2018-04-08T11:50:46.080Z,19.60
2018-04-08T11:53:14.360Z,20.40
2018-04-08T11:55:42.664Z,21.00
2018-04-08T11:58:11.717Z,17.00
2018-04-08T12:00:40.064Z,19.87
2018-04-08T12:03:08.316Z,19.23
2018-04-08T12:05:36.636Z,17.40
2018-04-08T12:08:04.921Z,20.83
2018-04-08T12:10:33.252Z,18.27
2018-04-08T12:13:02.312Z,17.57
2018-04-08T12:15:30.621Z,18.50
2018-04-08T12:17:59.684Z,18.33
2018-04-08T12:20:27.997Z,20.83
2018-04-08T12:22:57.065Z,21.10
2018-04-08T12:25:25.367Z,20.10
2018-04-08T12:27:54.408Z,20.20
2018-04-08T12:30:22.704Z,20.10
2018-04-08T12:32:50.984Z,19.20
2018-04-08T12:35:19.331Z,21.93
2018-04-08T12:37:48.428Z,19.90
2018-04-08T12:40:16.700Z,21.90
2018-04-08T12:42:45.021Z,20.83
2018-04-08T12:45:13.312Z,21.80
2018-04-08T12:47:42.393Z,19.70
2018-04-08T12:50:11.444Z,21.03
2018-04-08T12:52:39.737Z,23.67
2018-04-08T12:55:08.017Z,21.93
2018-04-08T12:57:36.324Z,22.53
2018-04-08T13:00:04.618Z,21.67
2018-04-08T13:02:32.933Z,21.67
2018-04-08T13:05:01.238Z,19.23
2018-04-08T13:07:30.329Z,21.27
2018-04-08T13:09:58.621Z,21.30
2018-04-08T13:12:26.943Z,21.17
2018-04-08T13:14:55.240Z,21.37
2018-04-08T13:17:23.549Z,22.40
2018-04-08T13:19:51.848Z,20.20
2018-04-08T13:24:54.673Z,21.30
2018-04-08T13:27:23.001Z,23.03
2018-04-08T13:29:51.277Z,21.43
2018-04-08T13:32:19.550Z,21.90
2018-04-08T13:34:48.621Z,22.07
2018-04-08T13:37:16.893Z,21.57
2018-04-08T13:39:45.197Z,22.43
2018-04-08T13:42:14.244Z,22.63
2018-04-08T13:44:42.581Z,23.13
2018-04-08T13:47:11.629Z,22.40
2018-04-08T13:49:39.921Z,22.80
2018-04-08T13:52:08.205Z,21.57
2018-04-08T13:54:37.292Z,20.87
2018-04-08T13:57:05.566Z,22.60
2018-04-08T13:59:34.653Z,18.80
2018-04-08T14:02:02.941Z,20.10
2018-04-08T14:04:31.253Z,18.97
2018-04-08T14:06:59.546Z,18.57
2018-04-08T14:09:27.899Z,18.27
2018-04-08T14:11:56.192Z,19.83
2018-04-08T14:14:24.594Z,21.27
2018-04-08T14:16:53.604Z,20.70
2018-04-08T14:19:21.905Z,20.33
2018-04-08T14:21:50.964Z,23.17
2018-04-08T14:24:19.598Z,20.00
2018-04-08T14:26:47.899Z,19.37
2018-04-08T14:29:16.252Z,23.00
2018-04-08T14:31:44.558Z,21.43
2018-04-08T14:34:12.853Z,20.57
2018-04-08T14:36:41.171Z,19.23
2018-04-08T14:39:10.211Z,22.33
2018-04-08T14:41:38.508Z,21.37
2018-04-08T14:44:06.804Z,18.87
2018-04-08T14:46:35.166Z,22.27
2018-04-08T14:49:03.407Z,22.87
2018-04-08T14:51:31.704Z,19.93
2018-04-08T14:54:00.021Z,22.60
2018-04-08T14:56:28.317Z,22.83
2018-04-08T14:58:56.608Z,24.27
2018-04-08T15:01:24.927Z,21.80
2018-04-08T15:03:53.229Z,21.63
2018-04-08T15:06:22.306Z,21.07
2018-04-08T15:08:50.592Z,22.63
2018-04-08T15:11:19.664Z,21.60
2018-04-08T15:13:47.949Z,22.17
2018-04-08T15:16:16.257Z,25.60
2018-04-08T15:18:44.554Z,25.03
2018-04-08T15:21:12.853Z,23.33
2018-04-08T15:23:41.185Z,21.73
2018-04-08T15:26:09.481Z,22.73
2018-04-08T15:28:37.762Z,20.80
2018-04-08T15:31:06.033Z,23.20
2018-04-08T15:33:34.353Z,19.97
2018-04-08T15:36:02.628Z,21.27
2018-04-08T15:38:30.944Z,20.20
2018-04-08T15:40:59.341Z,20.10
2018-04-08T15:43:27.695Z,20.53
2018-04-08T15:45:56.004Z,23.10
2018-04-08T15:48:24.399Z,22.23
2018-04-08T15:50:52.709Z,20.83
2018-04-08T15:53:21.791Z,21.83
2018-04-08T15:55:50.069Z,23.73
2018-04-08T15:58:18.392Z,24.10
2018-04-08T16:00:46.669Z,22.00
2018-04-08T16:03:15.728Z,23.47
2018-04-08T16:05:44.015Z,22.07
2018-04-08T16:08:13.155Z,22.50
2018-04-08T16:10:41.441Z,23.50
2018-04-08T16:13:09.750Z,24.23
2018-04-08T16:15:38.033Z,25.33
2018-04-08T16:18:06.331Z,23.20
2018-04-08T16:20:34.641Z,26.13
2018-04-08T16:23:02.924Z,27.10
2018-04-08T16:25:31.360Z,28.07
2018-04-08T16:28:00.481Z,24.67
2018-04-08T16:30:28.855Z,27.00
2018-04-08T16:32:57.125Z,26.23
2018-04-08T16:35:25.470Z,24.87
2018-04-08T16:37:53.791Z,24.50
2018-04-08T16:40:22.924Z,24.23
2018-04-08T16:42:51.200Z,24.27
2018-04-08T16:45:19.497Z,29.27
2018-04-08T16:47:47.762Z,25.87
2018-04-08T16:50:16.065Z,23.43
2018-04-08T16:52:44.357Z,24.60
2018-04-08T16:55:12.662Z,23.80
2018-04-08T16:57:41.703Z,23.97
2018-04-08T17:00:10.129Z,26.00
2018-04-08T17:02:39.256Z,22.63
2018-04-08T17:05:07.536Z,23.00
2018-04-08T17:07:36.625Z,23.97
2018-04-08T17:10:04.929Z,23.70
2018-04-08T17:12:33.212Z,22.00
2018-04-08T17:15:01.497Z,24.27
2018-04-08T17:17:29.780Z,24.13
2018-04-08T17:19:58.074Z,23.77
2018-04-08T17:22:26.366Z,21.90
2018-04-08T17:25:15.251Z,22.10
2018-04-08T17:27:44.326Z,22.07
2018-04-08T17:30:12.651Z,21.03
2018-04-08T17:32:40.933Z,24.23
2018-04-08T17:35:09.205Z,20.30
2018-04-08T17:37:37.528Z,19.43
2018-04-08T17:40:05.811Z,18.73
2018-04-08T17:42:34.119Z,19.87
2018-04-08T17:45:02.442Z,20.50
2018-04-08T17:47:30.744Z,19.63
2018-04-08T17:49:59.036Z,17.27
2018-04-08T17:52:28.114Z,17.20
2018-04-08T17:54:56.613Z,18.47
2018-04-08T18:00:22.824Z,17.80
2018-04-08T18:02:51.101Z,20.17
2018-04-08T18:05:19.389Z,21.40
2018-04-08T18:07:47.687Z,23.80
2018-04-08T18:10:15.989Z,23.57
2018-04-08T18:12:44.309Z,25.87
2018-04-08T18:15:12.588Z,26.77
2018-04-08T18:17:40.892Z,25.53
2018-04-08T18:20:09.190Z,26.23
2018-04-08T18:28:33.869Z,26.43
2018-04-08T18:31:02.202Z,26.87
2018-04-08T18:33:30.518Z,27.00
2018-04-08T18:35:58.837Z,29.43
2018-04-08T18:38:28.283Z,26.60
2018-04-08T18:40:56.673Z,26.83
2018-04-08T18:43:24.981Z,28.07
2018-04-08T18:45:53.446Z,27.60
2018-04-08T18:48:21.752Z,28.73
2018-04-08T18:50:50.795Z,31.00
2018-04-08T18:53:19.164Z,29.33
2018-04-08T18:55:47.439Z,28.00
2018-04-08T18:58:15.721Z,27.17
2018-04-08T19:00:44.008Z,28.43
2018-04-08T19:03:12.293Z,30.47
2018-04-08T19:05:41.382Z,26.93
2018-04-08T19:08:09.704Z,28.37
2018-04-08T19:10:47.716Z,27.17
2018-04-08T19:13:15.997Z,28.40
2018-04-08T19:15:44.554Z,28.30
2018-04-08T19:18:12.848Z,28.10
2018-04-08T19:20:45.064Z,28.27
2018-04-08T19:23:14.113Z,27.00
2018-04-08T19:25:42.425Z,27.10
2018-04-08T19:28:11.851Z,26.33
2018-04-08T19:30:40.824Z,26.27
2018-04-08T19:33:10.101Z,27.10
2018-04-08T19:35:39.071Z,31.00
2018-04-08T19:38:08.361Z,26.77
2018-04-08T19:43:27.104Z,28.80
2018-04-08T19:45:56.398Z,27.07
2018-04-08T19:48:25.100Z,26.93
2018-04-08T19:50:53.606Z,25.77
2018-04-08T19:53:22.069Z,24.73
2018-04-08T19:55:50.554Z,25.60
2018-04-08T19:58:19.127Z,26.80
2018-04-08T20:00:47.668Z,24.77
2018-04-08T20:03:16.836Z,27.50
2018-04-08T20:05:45.638Z,26.77
2018-04-08T20:08:14.912Z,26.40
2018-04-08T20:10:43.382Z,26.20
2018-04-08T20:13:12.906Z,23.67
2018-04-08T20:15:41.767Z,25.43
2018-04-08T20:18:10.166Z,26.73
2018-04-08T20:20:38.862Z,27.17
2018-04-08T20:23:07.399Z,26.47
2018-04-08T20:25:36.753Z,26.00
2018-04-08T20:28:06.030Z,26.07
2018-04-08T20:30:34.829Z,25.33
2018-04-08T20:33:04.114Z,25.67
2018-04-08T20:35:32.785Z,25.43
2018-04-08T20:38:01.823Z,26.90
2018-04-08T20:40:31.433Z,26.93
2018-04-08T20:43:00.009Z,25.77
2018-04-08T20:45:28.842Z,26.00
2018-04-08T20:47:57.937Z,28.13
2018-04-08T20:50:26.447Z,25.50
2018-04-08T20:52:54.898Z,26.83
2018-04-08T20:55:23.697Z,24.33
2018-04-08T20:57:52.256Z,28.40
2018-04-08T21:00:22.831Z,27.60
2018-04-08T21:02:54.859Z,27.97
2018-04-08T21:05:25.283Z,28.40
2018-04-08T21:07:53.779Z,29.00
2018-04-08T21:10:22.229Z,28.20
2018-04-08T21:12:51.525Z,29.47
2018-04-08T21:15:20.039Z,27.10
2018-04-08T21:17:48.459Z,28.33
2018-04-08T21:20:16.953Z,28.77
2018-04-08T21:22:45.481Z,27.70
2018-04-08T21:25:13.919Z,29.10
2018-04-08T21:27:43.124Z,28.77
2018-04-08T21:30:11.621Z,29.77
2018-04-08T21:32:40.039Z,28.33
2018-04-08T21:35:09.265Z,28.70
2018-04-08T21:37:37.779Z,30.37
2018-04-08T21:40:06.248Z,29.73
2018-04-08T21:42:34.679Z,28.30
2018-04-08T21:45:03.162Z,32.03
2018-04-08T21:47:31.659Z,29.70
2018-04-08T21:50:00.149Z,29.97
2018-04-08T21:52:29.413Z,28.70
2018-04-08T21:54:57.887Z,28.03
2018-04-08T21:57:26.328Z,29.00
2018-04-08T21:59:54.803Z,28.03
2018-04-08T22:02:23.251Z,28.57
2018-04-08T22:04:51.667Z,28.00
2018-04-08T22:07:20.161Z,27.50
2018-04-08T22:09:48.635Z,28.20
2018-04-08T22:12:17.059Z,26.43
2018-04-08T22:14:45.510Z,29.37
2018-04-08T22:17:13.936Z,27.93
2018-04-08T22:19:43.262Z,28.40
2018-04-08T22:22:11.774Z,28.53
2018-04-08T22:24:40.191Z,29.73
2018-04-08T22:27:08.647Z,28.83
2018-04-08T22:29:37.129Z,27.53
2018-04-08T22:32:05.689Z,27.60
2018-04-08T22:34:34.149Z,27.57
2018-04-08T22:37:02.600Z,30.10
2018-04-08T22:39:31.076Z,27.50
2018-04-08T22:42:00.334Z,27.73
2018-04-08T22:44:28.838Z,27.23
2018-04-08T22:46:58.130Z,28.67
2018-04-08T22:49:26.578Z,26.80
2018-04-08T22:51:55.078Z,28.37
2018-04-08T22:54:23.522Z,28.23
2018-04-08T22:56:51.983Z,28.77
2018-04-08T22:59:20.503Z,28.33
2018-04-08T23:01:48.958Z,28.77
2018-04-08T23:04:18.121Z,34.10
2018-04-08T23:06:46.573Z,29.77
2018-04-08T23:09:15.017Z,30.83
2018-04-08T23:11:43.470Z,31.13
2018-04-08T23:14:11.986Z,29.03
2018-04-08T23:16:40.449Z,28.80
2018-04-08T23:19:08.869Z,29.83
2018-04-08T23:21:37.394Z,31.60
2018-04-08T23:24:05.803Z,31.50
2018-04-08T23:26:34.276Z,30.03
2018-04-08T23:29:02.799Z,29.93
2018-04-08T23:31:31.191Z,31.40
2018-04-08T23:33:59.608Z,32.87
2018-04-08T23:36:28.112Z,29.73
2018-04-08T23:38:56.555Z,31.03
2018-04-08T23:41:24.985Z,31.03
2018-04-08T23:43:53.504Z,31.93
2018-04-08T23:46:21.927Z,31.63
2018-04-08T23:48:50.389Z,30.07
2018-04-08T23:51:19.606Z,32.00
2018-04-08T23:53:48.078Z,32.33
2018-04-08T23:56:16.499Z,31.17
2018-04-08T23:58:45.005Z,30.43
